Terminal Aerodrome Forecast
Issued by NWS Sioux Falls, SD

Home | Current Version | Previous Version | Text Only | Print | Product List | Glossary On
Versions: 1 2 3 4 5 6 7 8 9 10 11 12 13 14 15 16 17
000
FTUS43 KFSD 242320
TAFFSD
TAF
KFSD 242320Z 2500/2524 06006KT P6SM -RA SCT008 OVC015
      TEMPO 2500/2504 4SM -DZ BR BKN008
     FM250500 VRB04KT 4SM BR OVC007
     FM251500 29006KT P6SM OVC025
     FM252000 19008KT P6SM VCTS OVC050CB=

USA.gov is the U.S. government's official web portal to all federal, state and local government web resources and services.